Time;durP1;ratioP1;P1;durP2;ratioP2;P2;SDS_P1;SDS_P2;PMS_P1;PMS_P2;Temp;Humidity;BMP_temperature;BMP_pressure;BME280_temperature;BME280_humidity;BME280_pressure;Samples;Min_cycle;Max_cycle;Signal;HPM_P1;HPM_P2
2022/06/28 00:03:10;;;;;;;;;;;;;;;24.75;51.08;96139.06;10493430;28;1752;-55
2022/06/28 00:08:11;;;;;;;;;;;;;;;24.76;51.08;96133.47;10466859;28;2219;-58
2022/06/28 00:13:15;;;;;;;;;;;;;;;24.79;50.88;96129.47;10473297;28;1934;-55
2022/06/28 00:18:16;;;;;;;;;;;;;;;24.83;50.60;96127.81;10450387;28;1848;-59
2022/06/28 00:23:16;;;;;;;;;;;;;;;24.85;50.52;96134.38;10454829;28;1862;-58
2022/06/28 00:28:18;;;;;;;;;;;;;;;24.86;50.72;96133.31;10468791;28;1929;-58
2022/06/28 00:33:18;;;;;;;;;;;;;;;24.89;50.65;96129.28;10477242;28;1905;-55
2022/06/28 00:38:18;;;;;;;;;;;;;;;24.93;50.39;96130.28;10450735;28;2026;-58
2022/06/28 00:43:22;;;;;;;;;;;;;;;24.93;50.04;96133.72;10473631;28;2022;-56
2022/06/28 00:48:22;;;;;;;;;;;;;;;24.93;50.16;96131.06;10475495;28;1985;-59
2022/06/28 00:53:23;;;;;;;;;;;;;;;24.96;50.02;96138.44;10456765;28;2320;-56
2022/06/28 00:58:23;;;;;;;;;;;;;;;24.97;50.04;96145.31;10469820;28;1908;-57
2022/06/28 01:03:23;;;;;;;;;;;;;;;24.99;49.97;96150.31;10470774;28;1947;-60
2022/06/28 01:08:25;;;;;;;;;;;;;;;25.00;49.85;96159.84;10455487;28;1951;-57
2022/06/28 01:13:27;;;;;;;;;;;;;;;25.00;50.00;96162.50;10475871;28;1955;-59
2022/06/28 01:18:35;;;;;;;;;;;;;;;25.01;49.77;96172.03;10452932;28;1952;-56
2022/06/28 01:23:36;;;;;;;;;;;;;;;25.01;49.92;96174.69;10467334;28;1964;-54
2022/06/28 01:28:38;;;;;;;;;;;;;;;25.02;49.83;96187.66;10472786;28;1975;-53
2022/06/28 01:33:39;;;;;;;;;;;;;;;25.02;49.63;96187.66;10453768;28;2347;-59
2022/06/28 01:38:40;;;;;;;;;;;;;;;25.01;49.62;96196.69;10457135;28;1940;-56
2022/06/28 01:43:40;;;;;;;;;;;;;;;25.02;49.60;96192.16;10470353;28;1899;-56
2022/06/28 01:48:41;;;;;;;;;;;;;;;25.04;49.61;96213.88;10454998;28;1932;-60
2022/06/28 01:53:41;;;;;;;;;;;;;;;25.04;49.66;96216.53;10469330;28;1983;-55
2022/06/28 01:58:41;;;;;;;;;;;;;;;25.03;49.29;96221.06;10477059;28;1928;-56
2022/06/28 02:03:42;;;;;;;;;;;;;;;25.05;49.26;96226.06;10457352;28;1952;-57
2022/06/28 02:08:42;;;;;;;;;;;;;;;25.04;49.42;96232.44;10467739;28;2104;-59
2022/06/28 02:13:42;;;;;;;;;;;;;;;25.02;49.28;96227.44;10468588;28;1998;-58
2022/06/28 02:18:43;;;;;;;;;;;;;;;25.02;49.11;96230.09;10482474;28;1923;-58
2022/06/28 02:23:43;;;;;;;;;;;;;;;25.03;49.15;96223.72;10478535;28;1952;-59
2022/06/28 02:28:43;;;;;;;;;;;;;;;25.02;49.14;96219.47;10481936;28;2027;-59
2022/06/28 02:33:44;;;;;;;;;;;;;;;25.03;48.99;96223.72;10482940;28;1971;-56
2022/06/28 02:44:03;;;;;;;;;;;;;;;25.06;48.78;96218.91;10478047;28;1980;-58
2022/06/28 02:49:03;;;;;;;;;;;;;;;25.06;48.76;96209.06;10481361;28;1872;-56
2022/06/28 02:54:04;;;;;;;;;;;;;;;25.07;48.74;96209.88;10479393;28;2095;-59
2022/06/28 02:59:05;;;;;;;;;;;;;;;25.07;48.89;96205.34;10476861;28;1978;-60
2022/06/28 03:04:06;;;;;;;;;;;;;;;25.07;48.78;96215.97;10496817;28;1990;-58
2022/06/28 03:09:06;;;;;;;;;;;;;;;25.08;48.98;96219.41;10494228;28;1935;-55
2022/06/28 03:14:07;;;;;;;;;;;;;;;25.08;48.95;96219.41;10479329;28;2079;-57
2022/06/28 03:19:08;;;;;;;;;;;;;;;25.08;48.94;96220.16;10480653;28;2090;-54
2022/06/28 03:24:08;;;;;;;;;;;;;;;25.07;48.69;96215.97;10463169;28;1881;-58
2022/06/28 03:29:08;;;;;;;;;;;;;;;25.07;48.85;96213.31;10492773;28;2116;-55
2022/06/28 03:34:08;;;;;;;;;;;;;;;25.07;48.77;96215.97;10463803;28;1967;-57
2022/06/28 03:39:09;;;;;;;;;;;;;;;25.07;48.86;96215.97;10477353;28;1856;-55
2022/06/28 03:44:09;;;;;;;;;;;;;;;25.07;48.72;96223.13;10459827;28;1982;-54
2022/06/28 03:49:09;;;;;;;;;;;;;;;25.09;48.71;96227.06;10487561;28;2042;-58
2022/06/28 03:54:09;;;;;;;;;;;;;;;25.07;48.79;96212.50;10482178;28;2039;-57
2022/06/28 03:59:10;;;;;;;;;;;;;;;25.08;49.01;96217.53;10479065;28;1893;-57
2022/06/28 04:04:10;;;;;;;;;;;;;;;25.09;48.74;96218.31;10479756;28;2042;-56
2022/06/28 04:09:10;;;;;;;;;;;;;;;25.08;48.89;96216.75;10479045;28;1917;-55
2022/06/28 04:14:13;;;;;;;;;;;;;;;25.08;48.71;96227.38;10475369;28;1924;-58
2022/06/28 04:19:14;;;;;;;;;;;;;;;25.08;48.84;96233.44;10478999;28;2067;-58
2022/06/28 04:24:14;;;;;;;;;;;;;;;25.09;48.74;96224.41;10488811;28;1881;-55
2022/06/28 04:29:14;;;;;;;;;;;;;;;25.08;48.69;96217.53;10473346;28;2011;-56
2022/06/28 04:34:15;;;;;;;;;;;;;;;25.08;48.80;96220.16;10490672;28;1955;-55
2022/06/28 04:39:15;;;;;;;;;;;;;;;25.07;48.82;96226.56;10486161;28;1876;-58
2022/06/28 04:44:15;;;;;;;;;;;;;;;25.09;48.70;96250.16;10488519;28;2020;-57
2022/06/28 04:49:15;;;;;;;;;;;;;;;25.09;48.59;96235.03;10490597;28;1892;-58
2022/06/28 04:54:16;;;;;;;;;;;;;;;25.09;48.57;96223.63;10486289;28;1940;-56
2022/06/28 04:59:16;;;;;;;;;;;;;;;25.09;48.71;96218.31;10478445;28;1875;-58
2022/06/28 05:04:17;;;;;;;;;;;;;;;25.09;48.57;96224.41;10483388;28;1936;-59
2022/06/28 05:09:17;;;;;;;;;;;;;;;25.10;48.42;96215.38;10485271;28;2206;-56
2022/06/28 05:14:17;;;;;;;;;;;;;;;25.10;48.59;96212.72;10485294;28;1906;-58
2022/06/28 05:19:18;;;;;;;;;;;;;;;25.11;48.54;96205.56;10472400;28;1929;-58
2022/06/28 05:24:18;;;;;;;;;;;;;;;25.11;48.52;96197.59;10472399;28;2077;-56
2022/06/28 05:29:18;;;;;;;;;;;;;;;25.11;48.69;96184.31;10494975;28;1980;-58
2022/06/28 05:34:18;;;;;;;;;;;;;;;25.13;48.47;96167.03;10455726;28;1971;-57
2022/06/28 05:39:19;;;;;;;;;;;;;;;25.13;48.39;96159.09;10450836;28;2013;-55
2022/06/28 05:44:19;;;;;;;;;;;;;;;25.15;48.35;96159.59;10459215;28;1939;-57
2022/06/28 05:49:19;;;;;;;;;;;;;;;25.15;48.36;96156.94;10487817;28;1961;-57
2022/06/28 05:54:20;;;;;;;;;;;;;;;25.08;49.42;96159.16;10469274;28;1909;-59
2022/06/28 05:59:20;;;;;;;;;;;;;;;24.92;49.28;96134.00;10477634;28;1809;-58
2022/06/28 06:04:20;;;;;;;;;;;;;;;24.62;49.49;96126.53;10478610;28;1975;-55
2022/06/28 06:09:21;;;;;;;;;;;;;;;24.46;49.62;96135.81;10477755;28;1785;-57
2022/06/28 06:14:21;;;;;;;;;;;;;;;24.45;49.71;96142.16;10446437;28;1971;-58
2022/06/28 06:19:22;;;;;;;;;;;;;;;24.44;49.57;96124.72;10468057;28;1851;-56
2022/06/28 06:24:22;;;;;;;;;;;;;;;24.44;49.37;96119.41;10455886;28;1861;-57
2022/06/28 06:29:26;;;;;;;;;;;;;;;24.32;49.09;96119.06;10467847;28;1766;-59
2022/06/28 06:34:27;;;;;;;;;;;;;;;24.29;49.14;96131.03;10464060;28;1910;-55
2022/06/28 06:39:27;;;;;;;;;;;;;;;24.23;49.21;96114.41;10452179;28;1821;-59
2022/06/28 06:44:27;;;;;;;;;;;;;;;24.25;49.13;96122.06;10451596;28;1809;-56
2022/06/28 06:49:27;;;;;;;;;;;;;;;24.34;48.90;96124.88;10486723;28;1879;-56
2022/06/28 06:54:28;;;;;;;;;;;;;;;24.37;48.61;96103.88;10454588;28;1892;-57
2022/06/28 06:59:28;;;;;;;;;;;;;;;24.39;48.65;96098.28;10477635;28;1879;-56
2022/06/28 07:04:29;;;;;;;;;;;;;;;24.40;48.41;96095.31;10451091;28;1849;-58
2022/06/28 07:09:29;;;;;;;;;;;;;;;24.30;48.23;96086.78;10474656;28;1946;-57
2022/06/28 07:14:29;;;;;;;;;;;;;;;24.15;48.51;96077.97;10446747;28;1918;-57
2022/06/28 07:19:30;;;;;;;;;;;;;;;24.10;48.75;96093.94;10457044;28;1944;-57
2022/06/28 07:24:31;;;;;;;;;;;;;;;23.99;48.63;96100.44;10477003;28;1897;-57
2022/06/28 07:29:31;;;;;;;;;;;;;;;23.99;48.63;96113.66;10468509;28;1909;-56
2022/06/28 07:34:31;;;;;;;;;;;;;;;23.97;48.59;96105.22;10483100;28;1973;-57
2022/06/28 07:39:32;;;;;;;;;;;;;;;23.95;48.67;96133.06;10461604;28;2036;-59
2022/06/28 07:44:32;;;;;;;;;;;;;;;23.92;48.32;96146.88;10441263;28;1871;-58
2022/06/28 07:54:52;;;;;;;;;;;;;;;23.87;48.20;96166.25;10474310;28;1914;-54
2022/06/28 07:59:52;;;;;;;;;;;;;;;23.89;48.54;96181.84;10468641;28;1772;-56
2022/06/28 08:04:52;;;;;;;;;;;;;;;23.84;48.04;96168.69;10470911;28;1882;-56
2022/06/28 08:09:53;;;;;;;;;;;;;;;23.72;48.07;96169.09;10468152;28;1725;-58
2022/06/28 08:14:53;;;;;;;;;;;;;;;23.72;48.28;96153.19;10469660;28;1906;-56
2022/06/28 08:19:53;;;;;;;;;;;;;;;23.70;47.53;96141.34;10468175;28;1923;-57
2022/06/28 08:24:54;;;;;;;;;;;;;;;23.67;48.00;96134.75;10472199;28;1863;-57
2022/06/28 08:29:54;;;;;;;;;;;;;;;23.62;48.79;96132.16;10477479;28;1759;-55
2022/06/28 08:34:54;;;;;;;;;;;;;;;23.63;48.64;96117.88;10467903;28;1983;-57
2022/06/28 08:39:55;;;;;;;;;;;;;;;23.60;48.41;96107.84;10464862;28;1811;-56
2022/06/28 08:44:58;;;;;;;;;;;;;;;23.56;48.50;96116.63;10474547;28;1823;-58
2022/06/28 08:50:05;;;;;;;;;;;;;;;23.54;48.42;96116.91;10469321;28;1746;-57
2022/06/28 08:55:06;;;;;;;;;;;;;;;23.54;48.71;96102.88;10467606;28;1976;-57
2022/06/28 09:00:07;;;;;;;;;;;;;;;23.58;48.69;96099.41;10475005;28;1826;-59
2022/06/28 09:05:08;;;;;;;;;;;;;;;23.53;48.77;96096.81;10473994;28;1893;-56
2022/06/28 09:10:08;;;;;;;;;;;;;;;23.55;48.90;96094.69;10451122;28;1853;-55
2022/06/28 09:15:09;;;;;;;;;;;;;;;23.51;49.03;96093.69;10457810;28;1961;-58
2022/06/28 09:20:09;;;;;;;;;;;;;;;23.43;48.67;96096.97;10454527;28;1772;-56
2022/06/28 09:25:11;;;;;;;;;;;;;;;23.44;49.03;96093.22;10474102;28;1791;-56
2022/06/28 09:30:12;;;;;;;;;;;;;;;23.43;48.63;96094.31;10467968;28;1801;-56
2022/06/28 09:35:14;;;;;;;;;;;;;;;23.44;48.56;96088.72;10470279;28;1976;-56
2022/06/28 09:40:16;;;;;;;;;;;;;;;23.56;48.50;96090.94;10477723;28;1879;-58
2022/06/28 09:45:17;;;;;;;;;;;;;;;23.63;48.13;96080.81;10451630;28;1812;-58
2022/06/28 09:50:19;;;;;;;;;;;;;;;23.69;48.17;96089.47;10470632;28;1843;-58
2022/06/28 09:55:21;;;;;;;;;;;;;;;23.74;47.96;96060.31;10465337;28;2010;-57
2022/06/28 10:00:24;;;;;;;;;;;;;;;23.76;48.07;96056.28;10457271;28;1774;-59
2022/06/28 10:05:25;;;;;;;;;;;;;;;23.86;47.65;96048.22;10458013;28;2367;-57
2022/06/28 10:10:26;;;;;;;;;;;;;;;23.90;47.69;96033.31;10447760;28;1878;-58
2022/06/28 10:15:30;;;;;;;;;;;;;;;23.93;47.47;96038.03;10481407;28;1979;-57
2022/06/28 10:20:31;;;;;;;;;;;;;;;23.96;47.43;96016.28;10458630;28;1849;-59
2022/06/28 10:25:31;;;;;;;;;;;;;;;23.98;47.29;96015.97;10473546;28;1837;-58
2022/06/28 10:30:32;;;;;;;;;;;;;;;24.04;47.09;96022.81;10468437;28;1813;-57
2022/06/28 10:35:32;;;;;;;;;;;;;;;24.09;47.16;96028.81;10464002;28;1918;-57
2022/06/28 10:40:34;;;;;;;;;;;;;;;24.07;47.09;96027.53;10472937;28;1960;-57
2022/06/28 10:45:52;;;;;;;;;;;;;;;24.06;47.14;96002.13;10488345;28;2137;-54
2022/06/28 10:50:59;;;;;;;;;;;;;;;24.05;46.82;95988.09;10469988;28;2056;-58
2022/06/28 10:56:15;;;;;;;;;;;;;;;24.04;47.08;95997.13;10487664;28;1922;-55
2022/06/28 11:01:15;;;;;;;;;;;;;;;24.04;46.94;95986.53;10461572;28;1806;-57
2022/06/28 11:06:16;;;;;;;;;;;;;;;24.03;47.04;95990.22;10460050;28;1930;-59
2022/06/28 11:11:17;;;;;;;;;;;;;;;24.04;46.90;95999.75;10492717;28;1843;-58
2022/06/28 11:16:37;;;;;;;;;;;;;;;24.04;46.90;95989.16;10477723;28;1914;-59
2022/06/28 11:21:37;;;;;;;;;;;;;;;24.07;46.99;95967.38;10454748;28;1788;-59
2022/06/28 11:31:57;;;;;;;;;;;;;;;24.09;47.58;95975.84;10444079;28;2149;-56
2022/06/28 11:36:57;;;;;;;;;;;;;;;24.13;48.02;95990.06;10457099;28;1969;-58
2022/06/28 11:41:58;;;;;;;;;;;;;;;24.15;48.16;95979.97;10488671;28;2220;-57
2022/06/28 11:46:59;;;;;;;;;;;;;;;24.16;48.26;95978.91;10455042;28;2079;-55
2022/06/28 11:51:59;;;;;;;;;;;;;;;24.17;48.25;95974.41;10477286;28;1718;-58
2022/06/28 11:56:59;;;;;;;;;;;;;;;24.17;48.38;95977.06;10479362;28;1922;-58
2022/06/28 12:02:00;;;;;;;;;;;;;;;24.16;48.24;95964.88;10436437;28;1890;-58
2022/06/28 12:07:00;;;;;;;;;;;;;;;24.16;48.11;95944.47;10468216;28;1877;-59
2022/06/28 12:12:01;;;;;;;;;;;;;;;24.22;48.26;95940.66;10471618;28;1753;-58
2022/06/28 12:17:02;;;;;;;;;;;;;;;24.28;48.15;95937.94;10459263;28;1971;-57
2022/06/28 12:22:12;;;;;;;;;;;;;;;24.32;48.11;95950.28;10477265;28;1781;-56
2022/06/28 12:27:13;;;;;;;;;;;;;;;24.39;47.98;95973.75;10472972;28;1850;-58
2022/06/28 12:32:13;;;;;;;;;;;;;;;24.42;47.78;95986.41;10474474;28;1920;-58
2022/06/28 12:37:14;;;;;;;;;;;;;;;24.45;48.03;96001.72;10468712;28;1967;-58
2022/06/28 12:42:14;;;;;;;;;;;;;;;24.45;47.92;96004.38;10467289;28;1998;-59
2022/06/28 12:47:16;;;;;;;;;;;;;;;24.47;47.99;96010.97;10449822;28;1922;-59
2022/06/28 12:52:16;;;;;;;;;;;;;;;24.40;48.08;96001.81;10464032;28;1870;-61
2022/06/28 12:57:16;;;;;;;;;;;;;;;24.43;48.09;95985.31;10449995;28;1977;-58
2022/06/28 13:02:17;;;;;;;;;;;;;;;24.47;47.75;95987.09;10471581;28;1815;-58
2022/06/28 13:07:18;;;;;;;;;;;;;;;24.49;47.76;95973.56;10486264;28;1764;-58
2022/06/28 13:12:19;;;;;;;;;;;;;;;24.52;47.57;95955.22;10484838;28;1886;-57
2022/06/28 13:17:19;;;;;;;;;;;;;;;24.55;47.75;95929.97;10483999;28;2196;-59
2022/06/28 13:22:20;;;;;;;;;;;;;;;24.55;47.57;95919.38;10456180;28;2126;-57
2022/06/28 13:27:20;;;;;;;;;;;;;;;24.56;47.42;95919.09;10471714;28;1916;-59
2022/06/28 13:32:20;;;;;;;;;;;;;;;24.58;47.60;95919.59;10478971;28;1876;-59
2022/06/28 13:37:27;;;;;;;;;;;;;;;24.57;47.96;95923.31;10482774;28;2083;-56
2022/06/28 13:42:27;;;;;;;;;;;;;;;24.58;47.67;95909.00;10453426;28;1889;-57
2022/06/28 13:47:28;;;;;;;;;;;;;;;24.63;47.81;95887.66;10446839;28;1826;-59
2022/06/28 13:52:28;;;;;;;;;;;;;;;24.64;47.63;95854.00;10452276;28;1863;-59
2022/06/28 13:57:29;;;;;;;;;;;;;;;24.62;47.67;95811.91;10457892;28;1950;-58
2022/06/28 14:02:29;;;;;;;;;;;;;;;24.61;47.70;95793.63;10476597;28;1899;-61
2022/06/28 14:07:29;;;;;;;;;;;;;;;24.61;47.81;95788.31;10484891;28;1780;-59
2022/06/28 14:12:29;;;;;;;;;;;;;;;24.63;47.51;95799.41;10464933;28;1882;-58
2022/06/28 14:17:30;;;;;;;;;;;;;;;24.66;47.57;95818.19;10484749;28;1898;-60
2022/06/28 14:22:30;;;;;;;;;;;;;;;24.69;47.64;95891.03;10466819;28;1870;-60
2022/06/28 14:27:30;;;;;;;;;;;;;;;24.70;47.99;95897.88;10474011;28;1815;-60
2022/06/28 14:32:31;;;;;;;;;;;;;;;24.70;47.64;95898.69;10466788;28;1781;-61
2022/06/28 14:37:31;;;;;;;;;;;;;;;24.74;47.74;95914.78;10469666;28;1906;-60
2022/06/28 14:42:31;;;;;;;;;;;;;;;24.74;48.09;95917.44;10468195;28;1782;-60
2022/06/28 14:47:32;;;;;;;;;;;;;;;24.78;48.00;95944.94;10466681;28;1758;-59
2022/06/28 14:52:32;;;;;;;;;;;;;;;24.77;47.99;95968.00;10475395;28;1793;-58
2022/06/28 14:57:33;;;;;;;;;;;;;;;24.72;48.10;95972.59;10457747;28;1902;-60
2022/06/28 15:02:33;;;;;;;;;;;;;;;24.61;48.28;95963.25;10470318;28;1894;-59
2022/06/28 15:07:34;;;;;;;;;;;;;;;24.54;48.46;95931.06;10470009;28;1746;-58
2022/06/28 15:12:35;;;;;;;;;;;;;;;24.50;48.77;95899.09;10465726;28;1867;-60
2022/06/28 15:17:36;;;;;;;;;;;;;;;24.49;48.78;95867.56;10483185;28;1901;-60
2022/06/28 15:33:14;;;;;;;;;;;;;;;24.37;49.10;95816.94;10484153;28;1988;-59
2022/06/28 15:38:15;;;;;;;;;;;;;;;24.35;49.31;95811.94;10469299;28;1813;-59
2022/06/28 15:43:18;;;;;;;;;;;;;;;24.36;49.44;95804.78;10470439;28;1830;-55
2022/06/28 15:48:20;;;;;;;;;;;;;;;24.34;49.40;95799.75;10481687;28;1846;-60
2022/06/28 15:53:20;;;;;;;;;;;;;;;24.34;49.50;95804.28;10478309;28;1906;-61
2022/06/28 15:58:21;;;;;;;;;;;;;;;24.37;49.51;95803.69;10473235;28;1816;-60
2022/06/28 16:03:21;;;;;;;;;;;;;;;24.43;49.52;95808.59;10476531;28;1879;-60
2022/06/28 16:08:21;;;;;;;;;;;;;;;24.45;49.44;95842.72;10474511;28;1788;-60
2022/06/28 16:13:22;;;;;;;;;;;;;;;24.48;49.57;95872.09;10471633;28;1921;-58
2022/06/28 16:18:22;;;;;;;;;;;;;;;24.49;49.80;95880.81;10490845;28;1807;-59
2022/06/28 16:23:22;;;;;;;;;;;;;;;24.50;50.12;95888.47;10475548;28;1841;-58
2022/06/28 16:28:23;;;;;;;;;;;;;;;24.45;50.58;95872.66;10474756;28;1937;-58
2022/06/28 16:33:23;;;;;;;;;;;;;;;24.43;50.77;95855.50;10470027;28;1976;-59
2022/06/28 16:38:23;;;;;;;;;;;;;;;24.39;51.00;95834.09;10476669;28;1846;-57
2022/06/28 16:43:25;;;;;;;;;;;;;;;24.39;51.13;95818.22;10441571;28;1941;-61
2022/06/28 16:48:26;;;;;;;;;;;;;;;24.40;51.16;95790.63;10471707;28;1827;-60
2022/06/28 16:53:26;;;;;;;;;;;;;;;24.43;50.90;95789.25;10474846;28;1953;-59
2022/06/28 16:58:27;;;;;;;;;;;;;;;24.45;51.05;95798.47;10459137;28;1843;-59
2022/06/28 17:03:27;;;;;;;;;;;;;;;24.49;50.98;95790.72;10469150;28;1944;-59
2022/06/28 17:08:28;;;;;;;;;;;;;;;24.50;51.16;95771.88;10493996;28;1848;-60
2022/06/28 17:13:29;;;;;;;;;;;;;;;24.56;50.74;95751.34;10468245;28;1976;-59
2022/06/28 17:18:29;;;;;;;;;;;;;;;24.58;50.69;95741.22;10471400;28;1836;-57
2022/06/28 17:23:31;;;;;;;;;;;;;;;24.64;50.45;95709.03;10460754;28;1840;-60
2022/06/28 17:28:31;;;;;;;;;;;;;;;24.67;50.38;95689.84;10489562;28;1913;-61
2022/06/28 17:33:32;;;;;;;;;;;;;;;24.73;50.50;95690.53;10473102;28;1906;-60
2022/06/28 17:38:32;;;;;;;;;;;;;;;24.75;50.50;95689.16;10471749;28;1872;-56
2022/06/28 17:43:34;;;;;;;;;;;;;;;24.79;51.00;95695.41;10476174;28;1847;-55
2022/06/28 17:48:34;;;;;;;;;;;;;;;24.81;50.89;95703.84;10449827;28;1868;-60
2022/06/28 17:53:34;;;;;;;;;;;;;;;24.83;50.80;95695.63;10492998;28;1971;-57
2022/06/28 17:58:35;;;;;;;;;;;;;;;24.85;50.86;95678.31;10455558;28;1837;-60
2022/06/28 18:03:36;;;;;;;;;;;;;;;24.88;50.68;95663.66;10455150;28;1896;-59
2022/06/28 18:08:37;;;;;;;;;;;;;;;24.90;50.59;95653.53;10486612;28;1745;-60
2022/06/28 18:13:37;;;;;;;;;;;;;;;24.90;50.72;95634.97;10475614;28;1894;-59
2022/06/28 18:18:38;;;;;;;;;;;;;;;24.89;50.60;95596.31;10455761;28;1744;-60
2022/06/28 18:23:39;;;;;;;;;;;;;;;24.91;50.18;95604.75;10456352;28;1792;-58
2022/06/28 18:28:39;;;;;;;;;;;;;;;24.90;50.37;95593.34;10471799;28;1781;-57
2022/06/28 18:33:40;;;;;;;;;;;;;;;24.90;51.31;95603.94;10470554;28;1912;-56
2022/06/28 18:38:40;;;;;;;;;;;;;;;24.91;50.54;95621.44;10470125;28;1907;-60
2022/06/28 18:43:40;;;;;;;;;;;;;;;24.92;50.77;95601.00;10462360;28;1820;-58
2022/06/28 18:48:41;;;;;;;;;;;;;;;24.92;50.48;95609.72;10470484;28;1841;-60
2022/06/28 18:53:41;;;;;;;;;;;;;;;24.97;50.62;95619.44;10430592;28;2112;-59
2022/06/28 18:58:42;;;;;;;;;;;;;;;24.95;50.35;95616.31;10465806;28;1880;-61
2022/06/28 19:03:42;;;;;;;;;;;;;;;24.95;50.87;95625.06;10473604;28;1897;-59
2022/06/28 19:08:42;;;;;;;;;;;;;;;24.96;50.72;95633.75;10475124;28;1951;-59
2022/06/28 19:13:43;;;;;;;;;;;;;;;24.96;50.68;95647.03;10475370;28;1914;-59
2022/06/28 19:18:44;;;;;;;;;;;;;;;24.96;50.55;95649.69;10477198;28;1765;-59
2022/06/28 19:23:45;;;;;;;;;;;;;;;24.97;51.18;95656.56;10469626;28;1839;-59
2022/06/28 19:28:45;;;;;;;;;;;;;;;24.79;52.25;95668.16;10453476;28;1868;-59
2022/06/28 19:33:45;;;;;;;;;;;;;;;24.50;53.27;95671.19;10478032;28;1993;-57
2022/06/28 19:38:46;;;;;;;;;;;;;;;24.36;53.73;95674.97;10493010;28;1827;-56
2022/06/28 19:43:46;;;;;;;;;;;;;;;24.14;54.47;95668.53;10500028;28;1847;-57
2022/06/28 19:48:46;;;;;;;;;;;;;;;24.03;55.10;95680.41;10501384;28;1812;-56
2022/06/28 19:53:47;;;;;;;;;;;;;;;23.97;55.12;95688.72;10470585;28;1977;-56
2022/06/28 19:58:47;;;;;;;;;;;;;;;23.90;55.44;95698.94;10485669;28;1878;-57
2022/06/28 20:03:47;;;;;;;;;;;;;;;23.83;55.24;95691.41;10488189;28;1832;-58
2022/06/28 20:08:48;;;;;;;;;;;;;;;23.69;55.73;95693.28;10488267;28;2161;-57
2022/06/28 20:13:48;;;;;;;;;;;;;;;23.67;55.92;95671.59;10476091;28;1961;-57
2022/06/28 20:18:49;;;;;;;;;;;;;;;23.61;55.96;95675.44;10479572;28;1832;-57
2022/06/28 20:23:49;;;;;;;;;;;;;;;23.59;56.26;95674.94;10489595;28;1808;-56
2022/06/28 20:28:53;;;;;;;;;;;;;;;23.52;56.63;95658.66;10472763;28;1967;-57
2022/06/28 20:33:53;;;;;;;;;;;;;;;23.45;56.42;95661.69;10479516;28;1961;-55
2022/06/28 20:38:54;;;;;;;;;;;;;;;23.37;56.77;95674.81;10453330;28;1886;-59
2022/06/28 20:43:54;;;;;;;;;;;;;;;;;;10478193;28;1844;-56
2022/06/28 20:48:55;;;;;;;;;;;;;;;23.29;56.64;95678.91;10490100;28;1913;-56
2022/06/28 20:53:55;;;;;;;;;;;;;;;23.26;57.16;95662.84;10485708;28;1973;-54
2022/06/28 20:58:55;;;;;;;;;;;;;;;23.25;56.79;95662.03;10487948;28;1937;-58
2022/06/28 21:03:56;;;;;;;;;;;;;;;23.23;56.97;95655.47;10481211;28;1812;-57
2022/06/28 21:08:56;;;;;;;;;;;;;;;23.20;56.75;95637.56;10486480;28;1851;-58
2022/06/28 21:13:56;;;;;;;;;;;;;;;23.12;57.24;95614.44;10475194;28;1906;-59
2022/06/28 21:18:57;;;;;;;;;;;;;;;23.06;56.92;95583.91;10488396;28;1819;-56
2022/06/28 21:23:58;;;;;;;;;;;;;;;22.94;57.32;95596.78;10457860;28;1903;-58
2022/06/28 21:28:58;;;;;;;;;;;;;;;22.91;57.77;95592.09;10476666;28;1855;-57
2022/06/28 21:33:59;;;;;;;;;;;;;;;22.88;57.86;95595.31;10495454;28;1909;-55
2022/06/28 21:38:59;;;;;;;;;;;;;;;22.83;58.08;95624.47;10472812;28;1894;-57
2022/06/28 21:44:01;;;;;;;;;;;;;;;22.80;58.02;95612.63;10471024;28;1845;-58
2022/06/28 21:49:01;;;;;;;;;;;;;;;22.79;58.21;95616.34;10468731;28;1820;-56
2022/06/28 21:54:02;;;;;;;;;;;;;;;22.75;58.26;95609.28;10472182;28;1902;-57
2022/06/28 21:59:02;;;;;;;;;;;;;;;22.75;57.98;95588.16;10476270;28;1800;-58
2022/06/28 22:04:02;;;;;;;;;;;;;;;22.75;58.26;95596.09;10465445;28;2363;-58
2022/06/28 22:09:03;;;;;;;;;;;;;;;22.75;57.97;95606.66;10467321;28;1900;-58
2022/06/28 22:14:04;;;;;;;;;;;;;;;22.73;58.17;95612.22;10486858;28;2104;-59
2022/06/28 22:19:04;;;;;;;;;;;;;;;22.70;58.25;95602.22;10467024;28;2213;-56
2022/06/28 22:24:04;;;;;;;;;;;;;;;22.62;58.50;95603.69;10454324;28;1807;-59
2022/06/28 22:29:05;;;;;;;;;;;;;;;22.54;58.82;95609.59;10455545;28;1799;-57
2022/06/28 22:34:06;;;;;;;;;;;;;;;22.52;58.90;95584.56;10459950;28;1910;-58
2022/06/28 22:39:06;;;;;;;;;;;;;;;22.59;58.70;95596.31;10485549;28;1848;-57
2022/06/28 22:44:07;;;;;;;;;;;;;;;22.57;58.78;95597.66;10464292;28;1799;-56
2022/06/28 22:49:08;;;;;;;;;;;;;;;22.46;59.11;95594.38;10480205;28;1855;-56
2022/06/28 22:54:08;;;;;;;;;;;;;;;22.53;58.86;95597.47;10499069;28;1906;-55
2022/06/28 22:59:09;;;;;;;;;;;;;;;22.38;59.25;95595.06;10496020;28;1872;-59
2022/06/28 23:04:10;;;;;;;;;;;;;;;22.33;59.24;95602.28;10497497;28;1794;-57
2022/06/28 23:09:10;;;;;;;;;;;;;;;22.24;59.67;95602.16;10488475;28;1808;-58
2022/06/28 23:14:12;;;;;;;;;;;;;;;22.15;59.87;95593.31;10474660;28;1905;-58
2022/06/28 23:19:13;;;;;;;;;;;;;;;22.15;59.99;95598.59;10459121;28;2166;-57
2022/06/28 23:24:13;;;;;;;;;;;;;;;22.09;60.16;95591.78;10496288;28;1856;-58
2022/06/28 23:29:13;;;;;;;;;;;;;;;21.96;60.35;95581.19;10480203;28;1839;-59
2022/06/28 23:34:14;;;;;;;;;;;;;;;21.88;60.52;95587.91;10462184;28;2091;-60
2022/06/28 23:39:15;;;;;;;;;;;;;;;21.82;60.70;95575.84;10471986;28;1815;-58
2022/06/28 23:44:15;;;;;;;;;;;;;;;21.74;61.03;95587.00;10459632;28;1812;-57
2022/06/28 23:49:15;;;;;;;;;;;;;;;21.66;61.24;95598.19;10488720;28;1859;-56
2022/06/28 23:59:34;;;;;;;;;;;;;;;21.69;61.32;95579.16;10489900;28;2172;-59
